Time;durP1;ratioP1;P1;durP2;ratioP2;P2;SDS_P1;SDS_P2;PMS_P1;PMS_P2;Temp;Humidity;BMP_temperature;BMP_pressure;BME280_temperature;BME280_humidity;BME280_pressure;Samples;Min_cycle;Max_cycle;Signal;HPM_P1;HPM_P2
2023/04/03 00:00:49;;;;;;;3.83;1.65;;;2.60;99.90;;;;;;4940705;29;20532;-78
2023/04/03 00:03:16;;;;;;;4.05;1.70;;;2.50;99.90;;;;;;4937743;29;20505;-78
2023/04/03 00:05:43;;;;;;;3.70;1.58;;;2.50;99.90;;;;;;4944656;28;20508;-77
2023/04/03 00:08:09;;;;;;;2.88;1.60;;;2.40;99.90;;;;;;4950571;28;20085;-77
2023/04/03 00:10:37;;;;;;;2.45;1.70;;;2.40;99.90;;;;;;4942149;29;20036;-78
2023/04/03 00:13:04;;;;;;;3.35;1.60;;;2.30;99.90;;;;;;4929111;29;20534;-78
2023/04/03 00:15:31;;;;;;;3.80;0.82;;;2.30;99.90;;;;;;4920895;29;20048;-77
2023/04/03 00:17:57;;;;;;;3.60;1.70;;;2.20;99.90;;;;;;4935251;28;20038;-78
2023/04/03 00:20:23;;;;;;;3.58;1.63;;;2.20;99.90;;;;;;4964389;28;20046;-78
2023/04/03 00:22:49;;;;;;;1.83;1.02;;;2.20;99.90;;;;;;4934286;29;20063;-77
2023/04/03 00:25:15;;;;;;;2.60;1.60;;;2.20;99.90;;;;;;4921483;29;20039;-78
2023/04/03 00:27:41;;;;;;;0.88;0.60;;;2.10;99.90;;;;;;4926208;29;20555;-78
2023/04/03 00:30:10;;;;;;;3.35;1.80;;;2.10;99.90;;;;;;4947271;29;20105;-77
2023/04/03 00:32:37;;;;;;;3.45;1.90;;;2.10;99.90;;;;;;4925006;29;20054;-77
2023/04/03 00:35:03;;;;;;;3.58;1.60;;;2.00;99.90;;;;;;4925367;29;20051;-77
2023/04/03 00:37:30;;;;;;;4.65;1.83;;;2.00;99.90;;;;;;4927475;28;20050;-77
2023/04/03 00:39:57;;;;;;;2.50;1.58;;;2.00;99.90;;;;;;4942444;28;20517;-77
2023/04/03 00:42:23;;;;;;;3.03;1.80;;;1.90;99.90;;;;;;4925496;28;20845;-78
2023/04/03 00:44:49;;;;;;;3.80;1.55;;;1.90;99.90;;;;;;4925742;29;20047;-77
2023/04/03 00:47:20;;;;;;;2.53;1.52;;;1.80;99.90;;;;;;4941962;28;20051;-78
2023/04/03 00:49:46;;;;;;;1.33;0.65;;;1.80;99.90;;;;;;4924492;29;20773;-77
2023/04/03 00:52:21;;;;;;;1.63;0.88;;;1.80;99.90;;;;;;4927224;28;20058;-77
2023/04/03 00:54:51;;;;;;;2.75;1.58;;;1.70;99.90;;;;;;4925684;29;20476;-77
2023/04/03 00:57:18;;;;;;;3.95;1.80;;;1.70;99.90;;;;;;4925108;28;20050;-77
2023/04/03 00:59:49;;;;;;;2.00;0.80;;;1.70;99.90;;;;;;4925797;29;20227;-77
2023/04/03 01:02:16;;;;;;;1.48;0.77;;;1.60;99.90;;;;;;4926112;28;20801;-77
2023/04/03 01:04:43;;;;;;;3.35;1.83;;;1.60;99.90;;;;;;4925769;29;20035;-78
2023/04/03 01:07:26;;;;;;;1.10;0.77;;;1.50;99.90;;;;;;4924621;29;20044;-77
2023/04/03 01:09:56;;;;;;;4.43;1.83;;;1.50;99.90;;;;;;4941243;28;20047;-77
2023/04/03 01:12:31;;;;;;;4.18;1.80;;;1.50;99.90;;;;;;4909896;29;20600;-77
2023/04/03 01:15:01;;;;;;;1.75;1.08;;;1.40;99.90;;;;;;4925267;29;20082;-77
2023/04/03 01:17:37;;;;;;;3.22;1.88;;;1.40;99.90;;;;;;4925048;29;20945;-77
2023/04/03 01:20:31;;;;;;;0.63;0.63;;;1.30;99.90;;;;;;4923945;29;20058;-78
2023/04/03 01:22:57;;;;;;;;;;;1.30;99.90;;;;;;4925581;29;20520;-77
2023/04/03 01:25:23;;;;;;;1.15;0.68;;;1.20;99.90;;;;;;4924722;29;19927;-77
2023/04/03 01:27:49;;;;;;;1.25;0.75;;;1.20;99.90;;;;;;4924552;29;20051;-77
2023/04/03 01:30:20;;;;;;;3.33;2.00;;;1.20;99.90;;;;;;4926280;28;20043;-77
2023/04/03 01:32:46;;;;;;;3.10;1.88;;;1.10;99.90;;;;;;4922850;29;20880;-77
2023/04/03 01:35:12;;;;;;;1.80;1.02;;;1.10;99.90;;;;;;4924565;29;20051;-77
2023/04/03 01:37:39;;;;;;;2.83;1.15;;;1.00;99.90;;;;;;4920638;29;20074;-78
2023/04/03 01:40:08;;;;;;;3.08;1.83;;;1.00;99.90;;;;;;4924670;29;20834;-77
2023/04/03 01:42:35;;;;;;;1.42;1.25;;;1.00;99.90;;;;;;4924817;29;20140;-77
2023/04/03 01:45:01;;;;;;;2.80;1.00;;;0.90;99.90;;;;;;4924512;29;20557;-77
2023/04/03 01:47:28;;;;;;;4.25;1.83;;;0.90;99.90;;;;;;4925798;28;20058;-77
2023/04/03 01:49:57;;;;;;;4.65;2.10;;;0.90;99.90;;;;;;4924969;29;20058;-77
2023/04/03 01:52:23;;;;;;;2.90;1.38;;;1.00;99.90;;;;;;4924915;29;20047;-77
2023/04/03 01:54:52;;;;;;;1.50;0.75;;;0.80;99.90;;;;;;4924824;29;20417;-77
2023/04/03 01:57:18;;;;;;;4.50;2.13;;;0.80;99.90;;;;;;4925300;28;20134;-78
2023/04/03 01:59:46;;;;;;;3.67;2.17;;;0.80;99.90;;;;;;4925085;29;20461;-77
2023/04/03 02:02:14;;;;;;;3.72;1.90;;;0.70;99.90;;;;;;4914477;28;20062;-77
2023/04/03 02:04:40;;;;;;;1.58;1.48;;;0.80;99.90;;;;;;4925257;29;20035;-77
2023/04/03 02:07:09;;;;;;;4.93;2.58;;;0.70;99.90;;;;;;4901614;28;20078;-77
2023/04/03 02:09:38;;;;;;;0.90;0.63;;;0.70;99.90;;;;;;4923955;29;20058;-77
2023/04/03 02:12:06;;;;;;;4.70;1.08;;;0.80;99.90;;;;;;4925199;29;20050;-77
2023/04/03 02:14:32;;;;;;;1.52;1.10;;;0.80;99.90;;;;;;4940506;28;21510;-78
2023/04/03 02:17:08;;;;;;;13.45;1.40;;;0.80;99.90;;;;;;4924567;29;20058;-77
2023/04/03 02:19:37;;;;;;;4.50;2.55;;;0.80;99.90;;;;;;4923881;29;20039;-77
2023/04/03 02:22:07;;;;;;;3.38;2.35;;;0.90;99.90;;;;;;4924069;29;20055;-77
2023/04/03 02:24:32;;;;;;;4.95;2.42;;;0.90;99.90;;;;;;4924321;29;20067;-77
2023/04/03 02:27:01;;;;;;;0.95;0.80;;;0.90;99.90;;;;;;4925058;29;20083;-77
2023/04/03 02:29:27;;;;;;;4.78;2.50;;;1.00;99.90;;;;;;4924640;29;20039;-77
2023/04/03 02:31:54;;;;;;;1.88;0.93;;;0.90;99.90;;;;;;4924784;29;20049;-77
2023/04/03 02:34:20;;;;;;;3.45;1.38;;;0.90;99.90;;;;;;4924605;29;20051;-77
2023/04/03 02:36:48;;;;;;;2.35;1.45;;;0.90;99.90;;;;;;4924157;29;20134;-77
2023/04/03 02:39:29;;;;;;;4.50;2.70;;;1.00;99.90;;;;;;4915830;28;20114;-78
2023/04/03 02:41:55;;;;;;;1.45;0.80;;;1.00;99.90;;;;;;4924717;29;20612;-77
2023/04/03 02:44:25;;;;;;;3.03;1.35;;;1.00;99.90;;;;;;4926127;29;20158;-78
2023/04/03 02:46:54;;;;;;;3.85;2.65;;;0.90;99.90;;;;;;4926704;29;20055;-78
2023/04/03 02:49:20;;;;;;;6.82;3.15;;;0.90;99.90;;;;;;4926534;29;20047;-78
2023/04/03 02:51:54;;;;;;;0.93;0.80;;;0.90;99.90;;;;;;4926552;29;21458;-78
2023/04/03 02:54:30;;;;;;;2.70;1.85;;;0.80;99.90;;;;;;4945796;28;20131;-77
2023/04/03 02:56:57;;;;;;;7.97;1.73;;;0.90;99.90;;;;;;4929482;28;20047;-77
2023/04/03 02:59:24;;;;;;;7.70;3.33;;;0.90;99.90;;;;;;4925909;29;20047;-77
2023/04/03 03:01:50;;;;;;;6.70;2.95;;;0.90;99.90;;;;;;4925634;29;20655;-77
2023/04/03 03:04:16;;;;;;;1.27;1.13;;;0.80;99.90;;;;;;4926719;28;20438;-78
2023/04/03 03:06:43;;;;;;;7.15;3.78;;;0.80;99.90;;;;;;4928862;28;20138;-77
2023/04/03 03:09:09;;;;;;;1.65;0.90;;;0.80;99.90;;;;;;4925958;29;20039;-78
2023/04/03 03:11:38;;;;;;;1.25;1.15;;;0.90;99.90;;;;;;4925653;29;20071;-77
2023/04/03 03:14:07;;;;;;;6.28;3.25;;;0.80;99.90;;;;;;4927459;29;20073;-77
2023/04/03 03:16:33;;;;;;;2.92;1.13;;;0.80;99.90;;;;;;4925240;29;20074;-78
2023/04/03 03:19:01;;;;;;;3.78;1.60;;;0.80;99.90;;;;;;4925755;29;20048;-78
2023/04/03 03:21:28;;;;;;;3.55;1.50;;;0.80;99.90;;;;;;4925928;29;20049;-78
2023/04/03 03:23:54;;;;;;;0.57;0.50;;;0.70;99.90;;;;;;4927504;29;20075;-78
2023/04/03 03:26:21;;;;;;;2.13;1.17;;;0.70;99.90;;;;;;4928177;29;20044;-77
2023/04/03 03:28:46;;;;;;;3.83;0.70;;;0.70;99.90;;;;;;4940160;28;20063;-78
2023/04/03 03:31:15;;;;;;;2.45;1.40;;;0.70;99.90;;;;;;4925400;29;20090;-77
2023/04/03 03:33:41;;;;;;;3.90;1.25;;;0.60;99.90;;;;;;4927329;29;20081;-77
2023/04/03 03:36:08;;;;;;;5.60;3.15;;;0.60;99.90;;;;;;4924545;29;20684;-77
2023/04/03 03:38:35;;;;;;;6.00;3.20;;;0.60;99.90;;;;;;4924942;29;20048;-78
2023/04/03 03:41:01;;;;;;;2.63;1.63;;;0.50;99.90;;;;;;4924326;29;20099;-77
2023/04/03 03:43:28;;;;;;;1.88;1.38;;;0.50;99.90;;;;;;4926343;28;20082;-77
2023/04/03 03:45:55;;;;;;;6.18;3.45;;;0.40;99.90;;;;;;4902235;23;20116;-72
2023/04/03 03:48:21;;;;;;;4.55;2.85;;;0.40;99.90;;;;;;4892595;29;20414;-72
2023/04/03 03:50:47;;;;;;;5.55;3.33;;;0.30;99.90;;;;;;4881938;29;20054;-71
2023/04/03 03:53:12;;;;;;;2.28;1.52;;;0.30;99.90;;;;;;4876184;29;20430;-71
2023/04/03 03:55:38;;;;;;;6.13;3.55;;;0.20;99.90;;;;;;4881586;29;20574;-72
2023/04/03 03:58:04;;;;;;;5.00;2.13;;;0.20;99.90;;;;;;4880815;29;20049;-71
2023/04/03 04:00:30;;;;;;;5.80;3.00;;;0.10;99.90;;;;;;4881658;29;20096;-71
2023/04/03 04:02:56;;;;;;;3.85;1.70;;;0.10;99.90;;;;;;4882046;29;20040;-72
2023/04/03 04:05:22;;;;;;;6.20;1.92;;;0.10;99.90;;;;;;4883207;29;20048;-72
2023/04/03 04:07:47;;;;;;;2.20;1.63;;;0.00;99.90;;;;;;4880765;29;20127;-72
2023/04/03 04:10:13;;;;;;;4.50;1.70;;;-0.10;99.90;;;;;;4881817;29;20123;-72
2023/04/03 04:12:39;;;;;;;3.83;1.63;;;-0.20;99.90;;;;;;4884389;29;20040;-72
2023/04/03 04:15:05;;;;;;;3.97;2.08;;;-0.20;99.90;;;;;;4884508;29;20096;-71
2023/04/03 04:17:31;;;;;;;6.55;1.40;;;-0.20;99.90;;;;;;4883937;29;20044;-72
2023/04/03 04:19:56;;;;;;;6.78;3.25;;;-0.30;99.90;;;;;;4885555;29;20049;-72
2023/04/03 04:22:22;;;;;;;4.07;2.13;;;-0.40;99.90;;;;;;4884363;29;20041;-72
2023/04/03 04:24:47;;;;;;;3.90;2.15;;;-0.60;99.90;;;;;;4884696;29;20048;-72
2023/04/03 04:27:13;;;;;;;2.47;1.63;;;-0.60;99.90;;;;;;4884487;29;20055;-72
2023/04/03 04:29:38;;;;;;;5.57;1.63;;;-0.70;99.90;;;;;;4885571;29;20714;-72
2023/04/03 04:32:04;;;;;;;2.55;1.20;;;-0.80;99.90;;;;;;4868909;29;20377;-72
2023/04/03 04:34:30;;;;;;;7.00;3.30;;;-0.80;99.90;;;;;;4885096;29;20495;-72
2023/04/03 04:36:55;;;;;;;4.65;1.20;;;-0.80;99.90;;;;;;4883974;29;20566;-71
2023/04/03 04:39:21;;;;;;;3.60;2.22;;;-0.80;99.90;;;;;;4885424;29;20087;-72
2023/04/03 04:41:46;;;;;;;2.00;1.48;;;-0.90;99.90;;;;;;4899505;29;20151;-72
2023/04/03 04:44:12;;;;;;;3.42;1.60;;;-0.80;99.90;;;;;;4868974;29;20052;-72
2023/04/03 04:46:38;;;;;;;7.47;1.50;;;-0.80;99.90;;;;;;4883477;29;20049;-72
2023/04/03 04:49:03;;;;;;;5.18;1.70;;;-0.80;99.90;;;;;;4884842;29;20044;-72
2023/04/03 04:51:29;;;;;;;1.77;1.58;;;-0.80;99.90;;;;;;4899251;29;20144;-72
2023/04/03 04:53:54;;;;;;;6.65;1.75;;;-0.80;99.90;;;;;;4884132;29;20044;-72
2023/04/03 04:56:20;;;;;;;6.82;1.50;;;-0.80;99.90;;;;;;4884240;29;20084;-72
2023/04/03 04:58:46;;;;;;;1.00;0.70;;;-0.80;99.90;;;;;;4884701;29;20424;-71
2023/04/03 05:01:11;;;;;;;1.10;0.93;;;-0.80;99.90;;;;;;4890291;29;20036;-72
2023/04/03 05:03:37;;;;;;;1.70;1.42;;;-0.70;99.90;;;;;;4905861;29;20088;-72
2023/04/03 05:06:03;;;;;;;5.28;1.27;;;-0.70;99.90;;;;;;4896985;29;20049;-72
2023/04/03 05:08:29;;;;;;;3.92;1.38;;;-0.60;99.90;;;;;;4897328;29;20559;-72
2023/04/03 05:10:54;;;;;;;2.83;1.65;;;-0.60;99.90;;;;;;4902873;29;20037;-75
2023/04/03 05:13:20;;;;;;;9.43;4.15;;;-0.60;99.90;;;;;;4914268;29;20127;-74
2023/04/03 05:15:46;;;;;;;2.17;1.30;;;-0.60;99.90;;;;;;4896975;29;20049;-74
2023/04/03 05:18:12;;;;;;;1.27;1.17;;;-0.60;99.90;;;;;;4896929;29;20052;-72
2023/04/03 05:20:38;;;;;;;1.65;0.93;;;-0.60;99.90;;;;;;4903868;29;20041;-72
2023/04/03 05:23:04;;;;;;;3.08;1.15;;;-0.60;99.90;;;;;;4875861;29;20068;-72
2023/04/03 05:25:29;;;;;;;1.75;1.30;;;-0.60;99.90;;;;;;4896660;29;20127;-72
2023/04/03 05:27:55;;;;;;;1.33;1.17;;;-0.60;99.90;;;;;;4896944;29;20043;-74
2023/04/03 05:30:21;;;;;;;1.63;0.75;;;-0.60;99.90;;;;;;4901943;29;20368;-72
2023/04/03 05:32:47;;;;;;;5.00;2.00;;;-0.50;99.90;;;;;;4897270;29;20045;-72
2023/04/03 05:35:13;;;;;;;4.22;2.15;;;-0.60;99.90;;;;;;4896576;29;20052;-73
2023/04/03 05:37:38;;;;;;;5.47;1.58;;;-0.50;99.90;;;;;;4878782;29;20043;-72
2023/04/03 05:40:05;;;;;;;12.77;2.53;;;-0.50;99.90;;;;;;4893034;29;20052;-73
2023/04/03 05:42:31;;;;;;;8.82;4.10;;;-0.50;99.90;;;;;;4900559;29;20343;-74
2023/04/03 05:44:57;;;;;;;7.18;2.40;;;-0.50;99.90;;;;;;4907043;29;20047;-72
2023/04/03 05:47:22;;;;;;;3.33;1.88;;;-0.50;99.90;;;;;;4915308;29;20519;-74
2023/04/03 05:49:48;;;;;;;1.25;0.80;;;-0.40;99.90;;;;;;4880517;29;20072;-73
2023/04/03 05:52:27;;;;;;;6.93;2.00;;;-0.40;99.90;;;;;;4879822;29;20045;-73
2023/04/03 05:54:53;;;;;;;4.43;2.17;;;-0.30;99.90;;;;;;4881122;29;20046;-73
2023/04/03 05:57:19;;;;;;;1.90;1.50;;;-0.30;99.90;;;;;;4893577;29;20048;-73
2023/04/03 05:59:46;;;;;;;6.55;2.20;;;-0.20;99.90;;;;;;4896101;29;20045;-73
2023/04/03 06:02:13;;;;;;;4.72;1.98;;;-0.20;99.90;;;;;;4894387;29;20448;-73
2023/04/03 06:04:39;;;;;;;3.20;1.52;;;-0.10;99.90;;;;;;4870290;29;20052;-73
2023/04/03 06:07:04;;;;;;;4.50;1.67;;;-0.10;99.90;;;;;;4888645;29;20040;-73
2023/04/03 06:09:30;;;;;;;8.18;3.88;;;0.00;99.90;;;;;;4881869;29;20040;-73
2023/04/03 06:11:58;;;;;;;1.13;0.85;;;0.00;99.90;;;;;;4903419;29;20040;-73
2023/04/03 06:14:25;;;;;;;3.55;2.10;;;0.10;99.90;;;;;;4895326;29;20076;-74
2023/04/03 06:16:51;;;;;;;2.67;1.52;;;0.20;99.90;;;;;;4893978;29;20522;-74
2023/04/03 06:19:17;;;;;;;2.67;1.08;;;0.30;99.90;;;;;;4891412;29;20045;-74
2023/04/03 06:21:42;;;;;;;2.42;1.17;;;0.40;99.90;;;;;;4884633;29;20515;-72
2023/04/03 06:24:11;;;;;;;3.72;1.15;;;0.40;99.90;;;;;;4877512;29;20080;-72
2023/04/03 06:26:37;;;;;;;3.55;1.58;;;0.60;99.90;;;;;;4861912;29;20404;-72
2023/04/03 06:29:02;;;;;;;4.40;1.75;;;0.60;99.90;;;;;;4876931;29;20048;-72
2023/04/03 06:31:28;;;;;;;3.00;1.33;;;0.60;99.90;;;;;;4877061;29;20100;-72
2023/04/03 06:33:53;;;;;;;6.80;1.77;;;0.70;99.90;;;;;;4877044;29;20049;-72
2023/04/03 06:36:20;;;;;;;2.25;1.05;;;0.80;99.90;;;;;;4877118;29;20180;-72
2023/04/03 06:38:46;;;;;;;2.97;1.23;;;0.80;99.90;;;;;;4877052;29;20163;-72
2023/04/03 06:41:12;;;;;;;1.80;1.05;;;0.90;99.90;;;;;;4877058;29;20049;-72
2023/04/03 06:43:37;;;;;;;2.75;0.85;;;1.00;99.90;;;;;;4877218;29;20377;-72
2023/04/03 06:46:03;;;;;;;1.35;0.95;;;1.10;99.90;;;;;;4876830;29;20048;-72
2023/04/03 06:48:29;;;;;;;2.10;0.88;;;1.20;99.90;;;;;;4877040;29;20049;-72
2023/04/03 06:50:55;;;;;;;1.50;0.82;;;1.30;99.90;;;;;;4876962;29;20472;-72
2023/04/03 06:53:21;;;;;;;1.10;0.98;;;1.40;99.90;;;;;;4877279;29;20045;-72
2023/04/03 06:55:47;;;;;;;6.97;3.03;;;1.50;99.90;;;;;;4876740;29;20045;-72
2023/04/03 06:58:13;;;;;;;6.00;2.70;;;1.50;99.90;;;;;;4876754;29;20526;-72
2023/04/03 07:00:39;;;;;;;6.68;3.15;;;1.60;99.90;;;;;;4877027;29;20509;-72
2023/04/03 07:03:05;;;;;;;1.73;1.40;;;1.70;99.90;;;;;;4876791;29;20074;-72
2023/04/03 07:05:31;;;;;;;4.50;2.45;;;1.80;99.90;;;;;;4876953;29;20559;-72
2023/04/03 07:07:56;;;;;;;4.45;2.60;;;1.80;99.90;;;;;;4876884;29;20055;-72
2023/04/03 07:10:22;;;;;;;6.00;2.67;;;1.90;99.90;;;;;;4876664;29;20056;-72
2023/04/03 07:12:47;;;;;;;5.47;2.47;;;2.00;99.90;;;;;;4876501;29;20488;-72
2023/04/03 07:15:14;;;;;;;5.32;2.38;;;2.10;99.90;;;;;;4876664;29;20053;-72
2023/04/03 07:17:40;;;;;;;1.95;1.27;;;2.20;99.90;;;;;;4876503;29;20057;-72
2023/04/03 07:20:07;;;;;;;5.10;2.45;;;2.20;99.90;;;;;;4876623;29;20112;-72
2023/04/03 07:22:32;;;;;;;5.80;2.35;;;2.20;99.90;;;;;;4876437;29;20124;-72
2023/04/03 07:24:58;;;;;;;5.30;2.47;;;2.30;99.90;;;;;;4876456;29;20531;-72
2023/04/03 07:27:25;;;;;;;6.03;2.08;;;2.40;99.90;;;;;;4876562;29;20041;-71
2023/04/03 07:29:50;;;;;;;1.10;0.60;;;2.40;99.90;;;;;;4876551;29;20081;-72
2023/04/03 07:32:17;;;;;;;6.72;2.00;;;2.50;99.90;;;;;;4876371;29;20136;-72
2023/04/03 07:34:43;;;;;;;6.30;2.33;;;2.60;99.90;;;;;;4876347;29;20049;-72
2023/04/03 07:37:09;;;;;;;5.50;2.35;;;2.70;99.90;;;;;;4876490;29;20507;-72
2023/04/03 07:39:35;;;;;;;4.70;2.38;;;2.70;99.90;;;;;;4876437;29;20049;-72
2023/04/03 07:42:00;;;;;;;4.78;2.30;;;2.80;99.90;;;;;;4876168;29;20056;-72
2023/04/03 07:44:27;;;;;;;5.15;2.10;;;2.90;99.90;;;;;;4876539;29;20120;-72
2023/04/03 07:46:52;;;;;;;3.00;1.90;;;3.00;99.90;;;;;;4878145;29;20044;-72
2023/04/03 07:49:18;;;;;;;6.35;2.10;;;3.10;99.90;;;;;;4880045;29;20393;-72
2023/04/03 07:51:44;;;;;;;4.85;1.75;;;3.10;99.90;;;;;;4879796;29;20504;-72
2023/04/03 07:54:10;;;;;;;6.72;2.47;;;3.20;99.90;;;;;;4880125;29;20097;-72
2023/04/03 07:56:36;;;;;;;4.82;2.05;;;3.30;99.90;;;;;;4879957;29;20559;-72
2023/04/03 07:59:01;;;;;;;3.97;1.90;;;3.40;99.90;;;;;;4879882;29;20048;-72
2023/04/03 08:01:27;;;;;;;4.03;1.83;;;3.50;99.90;;;;;;4880978;29;20081;-72
2023/04/03 08:03:53;;;;;;;4.57;1.90;;;3.60;99.90;;;;;;4880863;29;20045;-72
2023/04/03 08:06:18;;;;;;;4.53;2.00;;;3.60;99.90;;;;;;4880026;29;20053;-72
2023/04/03 08:08:45;;;;;;;3.72;1.98;;;3.70;99.90;;;;;;4879841;29;20045;-72
2023/04/03 08:11:11;;;;;;;4.65;1.98;;;3.80;99.90;;;;;;4879561;29;20096;-72
2023/04/03 08:13:38;;;;;;;6.63;2.40;;;3.80;99.90;;;;;;4879696;29;20087;-72
2023/04/03 08:16:12;;;;;;;3.65;1.65;;;3.90;99.90;;;;;;4879687;29;20488;-72
2023/04/03 08:18:38;;;;;;;3.35;1.40;;;3.90;99.90;;;;;;4879434;29;20053;-72
2023/04/03 08:21:10;;;;;;;4.88;1.75;;;4.10;99.90;;;;;;4879446;29;20041;-72
2023/04/03 08:23:36;;;;;;;2.70;1.40;;;4.20;99.90;;;;;;4879385;29;20040;-72
2023/04/03 08:26:10;;;;;;;4.15;1.52;;;4.30;99.90;;;;;;4879531;29;20136;-72
2023/04/03 08:28:35;;;;;;;4.07;1.75;;;4.40;99.90;;;;;;4879302;29;20056;-72
2023/04/03 08:31:06;;;;;;;4.47;1.80;;;4.50;99.90;;;;;;4879104;29;20501;-72
2023/04/03 08:33:32;;;;;;;6.55;1.90;;;4.50;99.90;;;;;;4879600;29;20045;-72
2023/04/03 08:35:57;;;;;;;2.83;1.70;;;4.60;99.90;;;;;;4880352;29;20041;-72
2023/04/03 08:38:23;;;;;;;4.15;1.60;;;4.70;99.90;;;;;;4879188;29;20047;-72
2023/04/03 08:41:20;;;;;;;2.35;1.45;;;4.80;99.90;;;;;;4879065;29;20185;-72
2023/04/03 08:43:58;;;;;;;3.13;1.48;;;4.90;99.90;;;;;;4878913;29;20056;-72
2023/04/03 08:46:46;;;;;;;1.40;1.20;;;5.70;99.90;;;;;;4878874;29;20052;-72
2023/04/03 08:49:33;;;;;;;2.67;1.42;;;6.50;91.10;;;;;;4869368;29;20048;-72
2023/04/03 08:52:04;;;;;;;2.63;1.20;;;7.20;79.40;;;;;;4878690;29;20064;-73
2023/04/03 08:54:35;;;;;;;3.45;1.23;;;7.70;75.90;;;;;;4863435;29;20045;-72
2023/04/03 08:57:05;;;;;;;3.17;1.13;;;8.00;72.80;;;;;;4878608;29;20493;-72
2023/04/03 08:59:36;;;;;;;5.78;1.15;;;8.30;70.40;;;;;;4878817;29;20052;-73
2023/04/03 09:02:12;;;;;;;5.50;1.67;;;8.50;70.50;;;;;;4878608;29;20097;-73
2023/04/03 09:04:37;;;;;;;2.88;1.05;;;8.80;69.50;;;;;;4878743;29;20049;-72
2023/04/03 09:07:16;;;;;;;4.05;1.27;;;9.00;65.90;;;;;;4878698;29;20052;-72
2023/04/03 09:09:42;;;;;;;1.88;1.00;;;9.10;62.70;;;;;;4878943;29;20047;-72
2023/04/03 09:12:17;;;;;;;1.60;0.98;;;9.10;63.20;;;;;;4878552;29;20488;-72
2023/04/03 09:14:51;;;;;;;1.67;0.73;;;9.30;67.70;;;;;;4878761;29;20400;-73
2023/04/03 09:17:43;;;;;;;2.55;1.10;;;9.70;62.00;;;;;;4878633;29;20456;-73
2023/04/03 09:20:12;;;;;;;1.85;1.15;;;9.80;59.20;;;;;;4878716;29;20051;-73
2023/04/03 09:22:42;;;;;;;1.45;0.80;;;9.80;59.50;;;;;;4878247;29;20045;-73
2023/04/03 09:25:21;;;;;;;1.88;0.90;;;9.90;60.00;;;;;;4878560;29;20503;-73
2023/04/03 09:27:47;;;;;;;2.45;0.70;;;10.00;56.40;;;;;;4878450;29;20502;-72
2023/04/03 09:30:15;;;;;;;1.90;0.70;;;10.00;57.50;;;;;;4878332;29;20060;-73
2023/04/03 09:32:42;;;;;;;2.95;0.95;;;10.10;59.10;;;;;;4862770;29;20053;-73
2023/04/03 09:35:18;;;;;;;1.58;0.80;;;10.30;56.90;;;;;;4878180;29;20049;-72
2023/04/03 09:37:46;;;;;;;2.85;1.08;;;10.30;54.70;;;;;;4862559;29;20049;-73
2023/04/03 09:40:29;;;;;;;1.75;0.70;;;10.30;55.90;;;;;;4878029;29;20540;-73
2023/04/03 09:43:00;;;;;;;1.80;0.70;;;10.40;53.80;;;;;;4877880;29;20049;-72
2023/04/03 09:45:30;;;;;;;0.85;0.82;;;10.50;54.70;;;;;;4942079;23;20078;-76
2023/04/03 09:48:13;;;;;;;4.22;1.08;;;10.60;55.20;;;;;;4953654;29;20130;-77
2023/04/03 09:50:55;;;;;;;4.45;1.35;;;10.60;56.40;;;;;;4953620;29;20137;-76
2023/04/03 09:53:38;;;;;;;3.35;1.08;;;10.70;59.70;;;;;;4953590;29;20062;-77
2023/04/03 09:56:16;;;;;;;;;;;11.00;54.40;;;;;;4953907;29;20043;-77
2023/04/03 09:58:48;;;;;;;2.58;1.00;;;11.00;54.50;;;;;;4953344;29;19923;-77
2023/04/03 10:01:27;;;;;;;1.98;0.88;;;11.10;54.00;;;;;;4953688;29;20370;-77
2023/04/03 10:04:17;;;;;;;2.90;0.90;;;11.20;55.60;;;;;;4953567;29;20131;-77
2023/04/03 10:06:46;;;;;;;2.53;0.70;;;11.30;53.90;;;;;;4953565;29;20047;-76
2023/04/03 10:09:24;;;;;;;1.08;0.75;;;11.40;56.70;;;;;;4953047;28;20401;-76
2023/04/03 10:12:06;;;;;;;2.72;0.98;;;11.70;50.40;;;;;;4952935;29;20121;-76
2023/04/03 10:14:37;;;;;;;1.05;0.73;;;11.60;54.30;;;;;;4953274;29;20512;-77
2023/04/03 10:17:24;;;;;;;1.13;0.50;;;11.80;57.00;;;;;;4937316;29;20046;-76
2023/04/03 10:20:14;;;;;;;1.20;0.50;;;12.30;58.60;;;;;;4953290;29;20405;-76
2023/04/03 10:23:02;;;;;;;1.25;0.70;;;12.80;51.80;;;;;;4953354;29;20047;-76
2023/04/03 10:25:50;;;;;;;2.03;0.60;;;12.70;52.00;;;;;;4937448;29;20494;-77
2023/04/03 10:28:29;;;;;;;1.33;0.60;;;12.80;53.40;;;;;;4953367;29;20047;-77
2023/04/03 10:31:17;;;;;;;1.27;0.73;;;13.00;50.30;;;;;;4953235;29;20039;-77
2023/04/03 10:33:49;;;;;;;1.52;0.52;;;13.20;46.40;;;;;;4915907;29;20054;-78
2023/04/03 10:36:51;;;;;;;1.10;0.70;;;12.80;47.30;;;;;;4953254;29;20138;-77
2023/04/03 10:39:35;;;;;;;2.85;0.88;;;12.60;47.40;;;;;;4953386;29;20043;-77
2023/04/03 10:42:24;;;;;;;1.65;0.80;;;12.40;49.90;;;;;;4953164;29;20062;-77
2023/04/03 10:45:17;;;;;;;2.15;0.90;;;12.40;52.10;;;;;;4952608;29;20102;-76
2023/04/03 10:48:21;;;;;;;2.07;0.80;;;12.90;54.10;;;;;;4953226;29;20043;-77
2023/04/03 10:50:57;;;;;;;2.45;0.80;;;13.30;49.50;;;;;;4953201;29;20293;-77
2023/04/03 10:53:45;;;;;;;1.52;0.68;;;13.40;46.10;;;;;;4952909;29;20146;-77
2023/04/03 10:56:30;;;;;;;2.15;0.70;;;13.00;46.60;;;;;;4953076;29;20043;-77
2023/04/03 10:59:17;;;;;;;2.40;0.90;;;12.70;46.60;;;;;;4953064;29;20405;-77
2023/04/03 11:01:48;;;;;;;2.78;0.70;;;12.50;48.60;;;;;;4898100;29;20043;-77
2023/04/03 11:04:17;;;;;;;2.60;0.85;;;12.40;49.30;;;;;;4952675;29;20039;-77
2023/04/03 11:06:51;;;;;;;3.15;1.17;;;12.50;48.80;;;;;;4952652;29;20071;-77
2023/04/03 11:09:27;;;;;;;2.15;0.95;;;12.30;50.40;;;;;;4952758;29;20087;-77
2023/04/03 11:12:00;;;;;;;2.03;0.73;;;12.40;48.60;;;;;;4952439;29;20054;-77
2023/04/03 11:14:37;;;;;;;2.30;0.90;;;12.50;49.40;;;;;;4936392;29;20051;-77
2023/04/03 11:17:19;;;;;;;3.28;1.08;;;12.60;47.60;;;;;;4936832;29;20062;-76
2023/04/03 11:20:14;;;;;;;2.65;0.88;;;12.70;48.00;;;;;;4952579;29;20126;-77
2023/04/03 11:22:43;;;;;;;2.67;1.13;;;12.60;46.50;;;;;;4932629;29;20063;-77
2023/04/03 11:25:10;;;;;;;2.38;0.90;;;12.40;48.00;;;;;;4956341;29;20130;-76
2023/04/03 11:27:56;;;;;;;1.20;0.80;;;12.40;48.10;;;;;;4940282;29;20456;-77
2023/04/03 11:30:45;;;;;;;2.92;0.95;;;12.60;49.10;;;;;;4943532;29;20450;-76
2023/04/03 11:33:36;;;;;;;1.23;0.80;;;12.60;49.50;;;;;;4956030;29;20133;-77
2023/04/03 11:36:12;;;;;;;2.80;1.10;;;12.80;49.60;;;;;;4956312;29;20047;-77
2023/04/03 11:38:43;;;;;;;3.50;1.10;;;13.00;49.10;;;;;;4956283;29;20054;-76
2023/04/03 11:41:11;;;;;;;1.95;0.90;;;13.00;48.60;;;;;;4956195;29;20504;-76
2023/04/03 11:43:55;;;;;;;1.85;0.95;;;13.00;49.30;;;;;;4956053;29;20079;-77
2023/04/03 11:46:21;;;;;;;3.00;0.98;;;13.10;48.50;;;;;;4940120;29;20047;-77
2023/04/03 11:48:49;;;;;;;2.63;0.98;;;12.90;48.40;;;;;;4956271;29;20050;-77
2023/04/03 11:51:16;;;;;;;3.05;0.88;;;12.90;48.10;;;;;;4955987;29;20459;-77
2023/04/03 11:53:42;;;;;;;2.85;0.90;;;12.70;48.10;;;;;;4956133;29;20047;-77
2023/04/03 11:56:23;;;;;;;2.10;0.93;;;12.60;48.70;;;;;;4955928;29;20054;-76
2023/04/03 11:59:10;;;;;;;2.53;0.93;;;12.60;48.20;;;;;;4955838;29;20039;-77
2023/04/03 12:01:44;;;;;;;2.92;1.00;;;12.70;49.90;;;;;;4955508;29;20047;-77
2023/04/03 12:04:14;;;;;;;1.92;0.75;;;12.80;48.00;;;;;;4955571;29;20047;-76
2023/04/03 12:06:40;;;;;;;3.15;1.00;;;12.70;48.10;;;;;;4955881;29;20051;-76
2023/04/03 12:09:29;;;;;;;1.40;0.70;;;12.60;49.00;;;;;;4955616;29;20043;-77
2023/04/03 12:11:56;;;;;;;2.83;1.00;;;12.50;48.30;;;;;;4955192;29;20053;-76
2023/04/03 12:14:25;;;;;;;2.03;0.93;;;12.70;50.50;;;;;;4955387;29;20073;-77
2023/04/03 12:16:53;;;;;;;2.15;0.95;;;12.90;49.50;;;;;;4955552;29;20141;-76
2023/04/03 12:19:31;;;;;;;2.08;1.13;;;13.10;49.10;;;;;;4955369;29;20054;-77
2023/04/03 12:21:59;;;;;;;1.95;1.00;;;13.50;49.50;;;;;;4955014;29;20043;-76
2023/04/03 12:24:30;;;;;;;1.67;0.90;;;13.70;48.80;;;;;;4955476;29;20492;-76
2023/04/03 12:27:38;;;;;;;1.42;0.85;;;13.60;48.40;;;;;;4939230;29;20039;-76
2023/04/03 12:30:06;;;;;;;3.42;1.02;;;13.70;49.00;;;;;;4955443;29;20118;-76
2023/04/03 12:32:41;;;;;;;1.88;0.90;;;13.50;47.70;;;;;;4954498;28;20054;-76
2023/04/03 12:35:31;;;;;;;1.70;0.88;;;13.30;47.70;;;;;;4954972;29;20043;-76
2023/04/03 12:38:23;;;;;;;1.95;1.00;;;13.20;46.40;;;;;;4954969;29;20079;-76
2023/04/03 12:41:02;;;;;;;2.37;1.10;;;13.00;48.70;;;;;;4954864;29;20051;-76
2023/04/03 12:43:50;;;;;;;2.28;0.95;;;13.30;49.80;;;;;;4954892;29;20389;-76
2023/04/03 12:46:20;;;;;;;1.27;0.90;;;13.80;52.00;;;;;;4954712;29;20040;-77
2023/04/03 12:48:57;;;;;;;2.42;1.02;;;14.50;49.60;;;;;;4955092;29;20400;-76
2023/04/03 12:51:42;;;;;;;1.77;1.08;;;14.80;49.50;;;;;;4954467;29;20054;-76
2023/04/03 12:54:26;;;;;;;2.42;1.13;;;15.20;51.30;;;;;;4938546;29;20362;-76
2023/04/03 12:57:08;;;;;;;2.13;0.90;;;15.70;50.60;;;;;;4938868;29;20043;-77
2023/04/03 12:59:33;;;;;;;1.90;0.80;;;15.70;45.10;;;;;;4954924;29;20050;-77
2023/04/03 13:02:00;;;;;;;1.92;0.90;;;14.80;44.90;;;;;;4954575;29;20043;-77
2023/04/03 13:04:31;;;;;;;2.00;1.20;;;14.10;45.60;;;;;;4954618;29;20105;-76
2023/04/03 13:06:58;;;;;;;2.60;1.33;;;14.10;50.20;;;;;;4954452;29;20043;-77
2023/04/03 13:09:27;;;;;;;1.67;0.98;;;14.40;46.60;;;;;;4954656;29;20082;-76